createdAt,value
2022-08-18T06:15:58.730Z,97992.72
2022-08-18T06:18:31.133Z,97990.59
2022-08-18T06:21:06.562Z,98009.16
2022-08-18T06:23:41.990Z,98002.53
2022-08-18T06:26:28.645Z,98010.41
2022-08-18T06:29:15.954Z,98021.28
2022-08-18T06:32:02.446Z,98017.22
2022-08-18T06:34:51.547Z,98012.22
2022-08-18T06:37:35.099Z,98005.91
2022-08-18T06:40:02.564Z,97995.47
2022-08-18T06:42:32.557Z,98004.50
2022-08-18T06:45:18.670Z,97998.19
2022-08-18T06:48:15.320Z,97990.84
2022-08-18T06:50:53.710Z,97996.19
2022-08-18T06:53:27.607Z,97999.88
2022-08-18T06:55:56.299Z,97997.72
2022-08-18T06:58:30.364Z,98012.13
2022-08-18T07:01:02.271Z,98012.22
2022-08-18T07:03:41.486Z,98003.56
2022-08-18T07:06:22.512Z,98006.53
2022-08-18T07:08:52.914Z,98007.16
2022-08-18T07:12:06.583Z,98021.53
2022-08-18T07:14:44.157Z,98017.94
2022-08-18T07:17:18.818Z,98039.59
2022-08-18T07:19:58.952Z,98039.78
2022-08-18T07:22:38.929Z,98039.31
2022-08-18T07:25:07.269Z,98042.97
2022-08-18T07:27:49.095Z,98047.66
2022-08-18T07:30:21.650Z,98041.22
2022-08-18T07:33:22.138Z,98052.88
2022-08-18T07:35:59.527Z,98055.66
2022-08-18T07:38:42.644Z,98059.16
2022-08-18T07:41:26.134Z,98055.09
2022-08-18T07:44:16.437Z,98046.31
2022-08-18T07:46:52.470Z,98036.53
2022-08-18T07:49:22.997Z,98033.03
2022-08-18T07:51:57.385Z,98040.22
2022-08-18T07:54:48.854Z,98035.13
2022-08-18T07:57:20.305Z,98023.16
2022-08-18T08:00:11.238Z,98009.06
2022-08-18T08:03:07.111Z,98010.69
2022-08-18T08:06:02.802Z,97999.97
2022-08-18T08:09:05.185Z,98005.50
2022-08-18T08:11:56.039Z,97991.38
2022-08-18T08:14:55.959Z,97997.03
2022-08-18T08:18:11.675Z,97994.78
2022-08-18T08:20:51.959Z,97988.72
2022-08-18T08:23:35.058Z,97990.88
2022-08-18T08:26:35.919Z,98000.75
2022-08-18T08:29:42.574Z,97995.00
2022-08-18T08:32:19.359Z,97989.84
2022-08-18T08:35:02.717Z,97979.22
2022-08-18T08:37:58.255Z,97993.06
2022-08-18T08:40:37.970Z,97996.16
2022-08-18T08:43:19.417Z,97990.84
2022-08-18T08:45:56.718Z,97984.75
2022-08-18T08:48:27.442Z,97982.97
2022-08-18T08:51:15.905Z,97972.63
2022-08-18T08:53:51.239Z,97961.50
2022-08-18T08:56:31.202Z,97957.72
2022-08-18T08:59:07.570Z,97967.63
2022-08-18T09:01:55.071Z,97954.53
2022-08-18T09:04:30.398Z,97959.00
2022-08-18T09:07:15.895Z,97960.72
2022-08-18T09:09:51.995Z,97961.06
2022-08-18T09:12:25.570Z,97958.13
2022-08-18T09:15:16.870Z,97944.63
2022-08-18T09:17:50.815Z,97938.03
2022-08-18T09:20:45.777Z,97927.28
2022-08-18T09:23:22.985Z,97935.28
2022-08-18T09:26:00.477Z,97926.16
2022-08-18T09:28:29.927Z,97932.72
2022-08-18T09:31:08.526Z,97929.56
2022-08-18T09:33:40.540Z,97930.78
2022-08-18T09:36:29.164Z,97917.34
2022-08-18T09:39:20.637Z,97912.38
2022-08-18T09:42:04.363Z,97907.66
2022-08-18T09:44:52.194Z,97894.47
2022-08-18T09:47:22.285Z,97892.78
2022-08-18T09:49:55.952Z,97882.06
2022-08-18T09:52:25.092Z,97882.97
2022-08-18T09:54:53.423Z,97874.03
2022-08-18T09:57:27.265Z,97885.88
2022-08-18T10:00:02.701Z,97886.44
2022-08-18T10:02:36.938Z,97888.59
2022-08-18T10:05:15.883Z,97893.31
2022-08-18T10:07:50.165Z,97898.69
2022-08-18T10:10:59.749Z,97900.09
2022-08-18T10:13:48.970Z,97908.38
2022-08-18T10:16:25.853Z,97898.91
2022-08-18T10:19:39.870Z,97890.94
2022-08-18T10:22:10.625Z,97891.56
2022-08-18T10:24:46.518Z,97892.75
2022-08-18T10:27:34.925Z,97890.47
2022-08-18T10:30:05.418Z,97883.72
2022-08-18T10:35:38.207Z,97873.69
2022-08-18T10:38:17.405Z,97882.31
2022-08-18T10:41:00.346Z,97883.97
2022-08-18T10:43:45.692Z,97877.31
2022-08-18T10:46:27.823Z,97867.75
2022-08-18T10:49:04.453Z,97860.34
2022-08-18T10:52:00.623Z,97859.75
2022-08-18T10:54:54.515Z,97871.09
2022-08-18T10:57:44.583Z,97874.22
2022-08-18T11:00:20.984Z,97878.06
2022-08-18T11:03:50.345Z,97896.50
2022-08-18T11:06:09.090Z,97886.88
2022-08-18T11:08:48.535Z,97893.38
2022-08-18T11:14:41.958Z,97895.72
2022-08-18T11:17:26.381Z,97898.75
2022-08-18T11:19:55.194Z,97885.06
2022-08-18T11:22:32.238Z,97884.41
2022-08-18T11:25:02.995Z,97886.88
2022-08-18T11:27:37.542Z,97890.84
2022-08-18T11:30:12.299Z,97896.41
2022-08-18T11:32:52.048Z,97888.19
2022-08-18T11:35:26.067Z,97880.25
2022-08-18T11:37:57.527Z,97872.88
2022-08-18T11:41:08.684Z,97875.66
2022-08-18T11:43:40.800Z,97880.03
2022-08-18T11:46:27.963Z,97888.22
2022-08-18T11:48:58.593Z,97880.59
2022-08-18T11:51:32.903Z,97875.72
2022-08-18T11:54:02.649Z,97874.63
2022-08-18T11:56:37.839Z,97876.59
2022-08-18T11:59:54.440Z,97875.16
2022-08-18T12:02:25.505Z,97875.69
2022-08-18T12:05:08.425Z,97874.41
2022-08-18T12:07:49.717Z,97873.84
2022-08-18T12:10:28.709Z,97868.78
2022-08-18T12:13:00.861Z,97854.97
2022-08-18T12:15:46.937Z,97853.53
2022-08-18T12:18:26.021Z,97861.28
2022-08-18T12:21:02.727Z,97867.34
2022-08-18T12:23:38.430Z,97877.31
2022-08-18T12:26:05.985Z,97881.22
2022-08-18T12:28:52.724Z,97879.28
2022-08-18T12:31:19.515Z,97873.41
2022-08-18T12:34:01.209Z,97875.94
2022-08-18T12:36:29.855Z,97873.06
2022-08-18T12:38:57.241Z,97872.31
2022-08-18T12:41:24.504Z,97874.06
2022-08-18T12:46:40.141Z,97897.03
2022-08-18T12:49:22.486Z,97894.56
2022-08-18T12:51:50.710Z,97894.09
2022-08-18T12:54:20.064Z,97904.03
2022-08-18T12:56:51.050Z,97899.28
2022-08-18T12:59:18.811Z,97912.16
2022-08-18T13:01:46.115Z,97907.88
2022-08-18T13:04:14.207Z,97909.94
2022-08-18T13:07:00.564Z,97915.94
2022-08-18T13:09:53.535Z,97924.22
2022-08-18T13:12:23.939Z,97932.84
2022-08-18T13:14:53.045Z,97932.50
2022-08-18T13:17:33.451Z,97950.28
2022-08-18T13:20:08.015Z,97951.41
2022-08-18T13:22:41.835Z,97969.09
2022-08-18T13:25:12.994Z,97955.34
2022-08-18T13:27:59.932Z,97960.84
2022-08-18T13:30:30.054Z,97958.06
2022-08-18T13:33:02.609Z,97952.53
2022-08-18T13:35:35.530Z,97949.44
2022-08-18T13:38:18.970Z,97952.47
2022-08-18T13:40:49.656Z,97957.13
2022-08-18T13:43:18.910Z,97971.13
2022-08-18T13:45:48.128Z,97968.19
2022-08-18T13:48:21.381Z,97984.19
2022-08-18T13:50:52.373Z,97969.94
2022-08-18T13:53:21.894Z,97987.84
2022-08-18T13:55:49.247Z,97985.78
2022-08-18T13:58:20.387Z,98000.53
2022-08-18T14:01:01.870Z,98027.19
2022-08-18T14:03:47.366Z,98018.31
2022-08-18T14:06:18.456Z,98025.03
2022-08-18T14:08:51.294Z,98026.91
2022-08-18T14:11:18.812Z,98020.53
2022-08-18T14:13:45.606Z,98038.91
2022-08-18T14:16:18.670Z,98056.78
2022-08-18T14:19:10.104Z,98030.41
2022-08-18T14:22:04.608Z,98031.53
2022-08-18T14:24:52.960Z,98071.19
2022-08-18T14:27:25.434Z,98072.97
2022-08-18T14:29:53.007Z,98087.38
2022-08-18T14:32:29.307Z,98094.41
2022-08-18T14:35:24.434Z,98095.97
2022-08-18T14:37:49.177Z,98109.28
2022-08-18T14:40:17.944Z,98098.06
2022-08-18T14:42:54.153Z,98024.44
2022-08-18T14:45:31.468Z,97932.44
2022-08-18T14:48:07.487Z,97941.28
2022-08-18T14:50:48.919Z,97961.78
2022-08-18T14:53:21.166Z,97958.38
2022-08-18T14:55:52.400Z,97958.28
2022-08-18T14:58:28.846Z,97947.28
2022-08-18T15:00:57.684Z,97949.38
2022-08-18T15:03:31.100Z,97952.16
2022-08-18T15:06:00.520Z,97961.00
2022-08-18T15:08:28.267Z,97967.31
2022-08-18T15:10:57.283Z,97969.50
2022-08-18T15:13:26.465Z,97971.19
2022-08-18T15:15:53.817Z,97981.28
2022-08-18T15:18:22.286Z,97969.56
2022-08-18T15:21:34.744Z,97967.34
2022-08-18T15:24:20.194Z,97971.94
2022-08-18T15:26:51.791Z,97964.13
2022-08-18T15:29:27.993Z,97957.69
2022-08-18T15:32:02.210Z,97962.94
2022-08-18T15:34:32.059Z,97943.72
2022-08-18T15:37:09.694Z,97947.44
2022-08-18T15:39:36.976Z,97942.78
2022-08-18T15:42:10.756Z,97935.97
2022-08-18T15:44:38.087Z,97925.31
2022-08-18T15:47:05.991Z,97927.53
2022-08-18T15:49:36.253Z,97925.63
2022-08-18T15:52:03.569Z,97922.91
2022-08-18T15:54:30.414Z,97915.81
2022-08-18T15:56:58.806Z,97915.97
2022-08-18T15:59:39.741Z,97912.69
2022-08-18T16:02:11.405Z,97912.63
2022-08-18T16:04:41.319Z,97909.69
2022-08-18T16:07:18.051Z,97892.16
2022-08-18T16:10:06.127Z,97898.69
2022-08-18T16:12:33.216Z,97895.56
2022-08-18T16:15:00.368Z,97897.38
2022-08-18T16:17:31.807Z,97891.16
2022-08-18T16:19:58.769Z,97877.59
2022-08-18T16:22:25.557Z,97874.03
2022-08-18T16:24:55.114Z,97878.72
2022-08-18T16:27:22.079Z,97872.06
2022-08-18T16:29:49.240Z,97873.88
2022-08-18T16:32:16.741Z,97858.78
2022-08-18T16:34:43.544Z,97854.06
2022-08-18T16:37:11.043Z,97857.06
2022-08-18T16:39:44.362Z,97849.59
2022-08-18T16:42:16.341Z,97845.34
2022-08-18T16:44:44.196Z,97839.31
2022-08-18T16:47:13.173Z,97852.56
2022-08-18T16:49:40.278Z,97856.22
2022-08-18T16:52:07.760Z,97849.06
2022-08-18T16:54:34.631Z,97856.38
2022-08-18T16:57:01.418Z,97850.19
2022-08-18T16:59:46.610Z,97847.50
2022-08-18T17:02:32.325Z,97847.75
2022-08-18T17:05:02.886Z,97847.25
2022-08-18T17:07:31.803Z,97848.03
2022-08-18T17:09:59.939Z,97852.47
2022-08-18T17:12:28.132Z,97846.13
2022-08-18T17:14:59.465Z,97849.50
2022-08-18T17:17:34.903Z,97847.75
2022-08-18T17:20:02.589Z,97838.69
2022-08-18T17:22:38.802Z,97848.22
2022-08-18T17:25:10.414Z,97846.13
2022-08-18T17:27:40.369Z,97861.91
2022-08-18T17:30:22.409Z,97859.09
2022-08-18T17:32:52.540Z,97867.09
2022-08-18T17:35:29.441Z,97855.72
2022-08-18T17:38:11.716Z,97857.22
2022-08-18T17:41:04.726Z,97862.03
2022-08-18T17:46:18.030Z,97862.91
2022-08-18T17:48:57.702Z,97858.53
2022-08-18T17:51:52.476Z,97867.88
2022-08-18T17:54:41.790Z,97864.94
2022-08-18T17:57:13.851Z,97855.53
2022-08-18T17:59:51.340Z,97858.56
2022-08-18T18:02:28.672Z,97861.19
2022-08-18T18:04:58.540Z,97862.25
2022-08-18T18:07:31.183Z,97871.00
2022-08-18T18:10:01.996Z,97874.94
2022-08-18T18:12:31.758Z,97873.47
2022-08-18T18:14:59.720Z,97880.94
2022-08-18T18:17:32.696Z,97886.94
2022-08-18T18:20:39.818Z,97891.66
2022-08-18T18:23:25.688Z,97892.31
2022-08-18T18:25:59.199Z,97904.56
2022-08-18T18:28:34.196Z,97902.03
2022-08-18T18:31:30.053Z,97894.81
2022-08-18T18:34:03.033Z,97903.28
2022-08-18T18:36:43.891Z,97910.31
2022-08-18T18:39:42.936Z,97928.00
2022-08-18T18:42:27.377Z,97921.94
2022-08-18T18:45:00.493Z,97932.50
2022-08-18T18:47:58.877Z,97931.88
2022-08-18T18:50:55.749Z,97931.88
2022-08-18T18:53:41.229Z,97921.53
2022-08-18T18:56:37.096Z,97936.69
2022-08-18T18:59:26.387Z,97936.88
2022-08-18T19:02:33.792Z,97942.66
2022-08-18T19:05:14.377Z,97959.34
2022-08-18T19:07:56.257Z,97972.84
2022-08-18T19:10:35.400Z,97971.81
2022-08-18T19:13:11.555Z,97972.66
2022-08-18T19:15:58.373Z,97968.78
2022-08-18T19:18:34.686Z,97972.53
2022-08-18T19:22:04.632Z,97975.53
2022-08-18T19:24:19.591Z,97974.84
2022-08-18T19:26:59.063Z,97974.66
2022-08-18T19:29:41.665Z,97977.09
2022-08-18T19:32:17.119Z,97977.78
2022-08-18T19:34:51.330Z,97982.72
2022-08-18T19:37:40.359Z,97985.31
2022-08-18T19:40:27.897Z,97977.56
2022-08-18T19:43:00.217Z,97984.94
2022-08-18T19:45:36.253Z,97993.94
2022-08-18T19:48:29.957Z,97998.13
2022-08-18T19:51:09.137Z,98000.00
2022-08-18T19:54:01.713Z,98002.16
2022-08-18T19:56:54.614Z,98003.53
2022-08-18T19:59:55.962Z,97995.34
2022-08-18T20:02:32.813Z,97993.19
2022-08-18T20:04:59.569Z,97983.19
2022-08-18T20:08:01.032Z,97979.50
2022-08-18T20:10:59.138Z,97984.84
2022-08-18T20:13:38.396Z,97983.94
2022-08-18T20:16:10.638Z,97982.59
2022-08-18T20:18:42.997Z,97970.22
2022-08-18T20:21:29.882Z,97975.34
2022-08-18T20:24:15.910Z,97975.00
2022-08-18T20:26:48.077Z,97980.34
2022-08-18T20:29:18.414Z,97982.69
2022-08-18T20:31:49.373Z,97969.91
2022-08-18T20:34:20.349Z,97973.44
2022-08-18T20:36:49.350Z,97973.44
2022-08-18T20:39:40.421Z,97976.97
2022-08-18T20:42:34.876Z,97977.09
2022-08-18T20:45:35.099Z,97991.34
2022-08-18T20:48:25.730Z,97998.38
2022-08-18T20:50:57.500Z,97991.03
2022-08-18T20:54:02.827Z,97987.56
2022-08-18T20:56:52.434Z,97981.09
2022-08-18T20:59:23.641Z,97976.63
2022-08-18T21:02:03.683Z,97976.66
2022-08-18T21:04:50.482Z,97987.72
2022-08-18T21:07:36.026Z,97987.41
2022-08-18T21:10:20.353Z,97981.22
2022-08-18T21:12:56.708Z,97981.53
2022-08-18T21:15:30.717Z,97982.75
2022-08-18T21:18:02.794Z,97978.22
2022-08-18T21:20:31.543Z,97968.66
2022-08-18T21:23:09.238Z,97953.53
2022-08-18T21:25:40.811Z,97956.41
2022-08-18T21:28:07.865Z,97946.00
2022-08-18T21:30:34.812Z,97956.22
2022-08-18T21:33:16.833Z,97953.53
2022-08-18T21:35:43.642Z,97969.97
2022-08-18T21:38:12.373Z,97966.78
2022-08-18T21:40:46.984Z,97972.97
2022-08-18T21:43:33.054Z,97974.47
2022-08-18T21:46:00.301Z,97985.41
2022-08-18T21:48:28.080Z,97978.16
2022-08-18T21:50:58.812Z,97987.41
2022-08-18T21:53:31.429Z,97995.31
2022-08-18T21:55:58.941Z,98002.91
2022-08-18T21:58:45.390Z,98007.25
2022-08-18T22:01:28.232Z,98019.16
2022-08-18T22:04:07.254Z,98023.50
2022-08-18T22:06:33.940Z,98020.81
2022-08-18T22:09:32.258Z,98013.09
2022-08-18T22:12:53.096Z,98015.94
2022-08-18T22:15:39.458Z,98019.78
2022-08-18T22:18:28.657Z,98012.59
2022-08-18T22:20:57.769Z,98001.50
2022-08-18T22:23:54.526Z,97988.97
2022-08-18T22:26:23.752Z,97989.59
2022-08-18T22:29:01.154Z,97984.09
2022-08-18T22:31:32.564Z,97976.38
2022-08-18T22:34:08.229Z,97978.03
2022-08-18T22:36:42.108Z,97964.13
2022-08-18T22:39:11.624Z,97993.78
2022-08-18T22:41:40.105Z,97996.31
2022-08-18T22:44:07.447Z,98006.22
2022-08-18T22:46:35.009Z,97998.03
2022-08-18T22:49:02.994Z,97992.50
2022-08-18T22:51:32.796Z,97985.28
2022-08-18T22:53:59.714Z,97974.69
2022-08-18T22:56:34.439Z,97953.72
2022-08-18T22:59:15.594Z,97950.72
2022-08-18T23:01:45.764Z,97955.91
2022-08-18T23:04:13.136Z,97949.53
2022-08-18T23:06:39.890Z,97955.25
2022-08-18T23:09:07.553Z,97972.34
2022-08-18T23:11:34.476Z,97966.97
2022-08-18T23:14:02.447Z,97962.44
2022-08-18T23:16:31.578Z,97954.72
2022-08-18T23:19:03.070Z,97956.91
2022-08-18T23:21:34.884Z,97949.69
2022-08-18T23:24:05.093Z,97952.22
2022-08-18T23:26:32.251Z,97953.75
2022-08-18T23:28:59.026Z,97938.97
2022-08-18T23:31:26.066Z,97944.31
2022-08-18T23:33:52.782Z,97935.78
2022-08-18T23:36:19.533Z,97944.63
2022-08-18T23:38:46.425Z,97926.34
2022-08-18T23:41:14.183Z,97918.50
2022-08-18T23:43:41.916Z,97923.16
2022-08-18T23:46:18.105Z,97913.63
2022-08-18T23:48:49.723Z,97905.88
2022-08-18T23:51:39.255Z,97901.00
2022-08-18T23:54:10.217Z,97905.69
2022-08-18T23:56:38.254Z,97896.31
2022-08-18T23:59:07.715Z,97894.47
